sensor_id;sensor_type;location;lat;lon;timestamp;temperature;humidity
39325;DHT22;25037;49.488;9.900;2023-03-25T00:02:22;11.00;74.20
39325;DHT22;25037;49.488;9.900;2023-03-25T00:04:53;10.90;74.30
39325;DHT22;25037;49.488;9.900;2023-03-25T00:07:20;11.00;74.40
39325;DHT22;25037;49.488;9.900;2023-03-25T00:09:47;11.00;74.40
39325;DHT22;25037;49.488;9.900;2023-03-25T00:12:15;11.00;74.50
39325;DHT22;25037;49.488;9.900;2023-03-25T00:14:45;11.10;74.50
39325;DHT22;25037;49.488;9.900;2023-03-25T00:17:24;11.10;74.40
39325;DHT22;25037;49.488;9.900;2023-03-25T00:20:02;11.10;74.40
39325;DHT22;25037;49.488;9.900;2023-03-25T00:22:37;11.20;74.20
39325;DHT22;25037;49.488;9.900;2023-03-25T00:25:12;11.20;74.10
39325;DHT22;25037;49.488;9.900;2023-03-25T00:27:43;11.20;74.00
39325;DHT22;25037;49.488;9.900;2023-03-25T00:30:12;11.20;73.90
39325;DHT22;25037;49.488;9.900;2023-03-25T00:32:39;11.20;73.90
39325;DHT22;25037;49.488;9.900;2023-03-25T00:35:06;11.20;73.90
39325;DHT22;25037;49.488;9.900;2023-03-25T00:37:33;11.20;73.90
39325;DHT22;25037;49.488;9.900;2023-03-25T00:40:00;11.20;74.00
39325;DHT22;25037;49.488;9.900;2023-03-25T00:42:27;11.10;73.90
39325;DHT22;25037;49.488;9.900;2023-03-25T00:44:53;11.10;73.80
39325;DHT22;25037;49.488;9.900;2023-03-25T00:47:20;11.10;73.90
39325;DHT22;25037;49.488;9.900;2023-03-25T00:49:48;11.10;73.90
39325;DHT22;25037;49.488;9.900;2023-03-25T00:52:15;11.10;74.00
39325;DHT22;25037;49.488;9.900;2023-03-25T00:54:42;11.10;74.00
39325;DHT22;25037;49.488;9.900;2023-03-25T00:57:09;11.10;74.00
39325;DHT22;25037;49.488;9.900;2023-03-25T00:59:36;11.10;74.00
39325;DHT22;25037;49.488;9.900;2023-03-25T01:02:02;11.10;73.80
39325;DHT22;25037;49.488;9.900;2023-03-25T01:04:33;11.20;73.60
39325;DHT22;25037;49.488;9.900;2023-03-25T01:07:00;11.20;73.50
39325;DHT22;25037;49.488;9.900;2023-03-25T01:09:27;11.10;73.40
39325;DHT22;25037;49.488;9.900;2023-03-25T01:11:53;11.10;73.40
39325;DHT22;25037;49.488;9.900;2023-03-25T01:14:21;11.10;73.30
39325;DHT22;25037;49.488;9.900;2023-03-25T01:16:49;11.10;73.30
39325;DHT22;25037;49.488;9.900;2023-03-25T01:19:16;11.00;73.30
39325;DHT22;25037;49.488;9.900;2023-03-25T01:21:43;11.00;73.20
39325;DHT22;25037;49.488;9.900;2023-03-25T01:24:13;11.00;73.20
39325;DHT22;25037;49.488;9.900;2023-03-25T01:26:41;11.00;73.20
39325;DHT22;25037;49.488;9.900;2023-03-25T01:29:13;11.00;73.20
39325;DHT22;25037;49.488;9.900;2023-03-25T01:31:40;11.00;73.10
39325;DHT22;25037;49.488;9.900;2023-03-25T01:34:08;11.00;73.00
39325;DHT22;25037;49.488;9.900;2023-03-25T01:36:34;11.00;72.90
39325;DHT22;25037;49.488;9.900;2023-03-25T01:39:07;11.00;72.80
39325;DHT22;25037;49.488;9.900;2023-03-25T01:41:35;11.00;72.80
39325;DHT22;25037;49.488;9.900;2023-03-25T01:46:45;10.90;72.80
39325;DHT22;25037;49.488;9.900;2023-03-25T01:51:54;10.90;72.50
39325;DHT22;25037;49.488;9.900;2023-03-25T01:54:21;10.80;72.40
39325;DHT22;25037;49.488;9.900;2023-03-25T01:56:49;10.80;72.40
39325;DHT22;25037;49.488;9.900;2023-03-25T01:59:19;10.70;72.50
39325;DHT22;25037;49.488;9.900;2023-03-25T02:01:46;10.70;72.50
39325;DHT22;25037;49.488;9.900;2023-03-25T02:04:15;10.70;72.50
39325;DHT22;25037;49.488;9.900;2023-03-25T02:06:49;10.60;72.50
39325;DHT22;25037;49.488;9.900;2023-03-25T02:09:21;10.60;72.60
39325;DHT22;25037;49.488;9.900;2023-03-25T02:11:49;10.60;72.60
39325;DHT22;25037;49.488;9.900;2023-03-25T02:14:23;10.70;72.70
39325;DHT22;25037;49.488;9.900;2023-03-25T02:17:20;10.70;72.60
39325;DHT22;25037;49.488;9.900;2023-03-25T02:22:58;10.70;72.40
39325;DHT22;25037;49.488;9.900;2023-03-25T02:28:41;10.80;72.30
39325;DHT22;25037;49.488;9.900;2023-03-25T02:31:50;10.80;72.20
39325;DHT22;25037;49.488;9.900;2023-03-25T02:34:55;10.80;72.10
39325;DHT22;25037;49.488;9.900;2023-03-25T02:40:04;10.80;72.20
39325;DHT22;25037;49.488;9.900;2023-03-25T02:43:10;10.80;72.20
39325;DHT22;25037;49.488;9.900;2023-03-25T02:45:43;10.80;72.20
39325;DHT22;25037;49.488;9.900;2023-03-25T02:48:17;10.80;72.30
39325;DHT22;25037;49.488;9.900;2023-03-25T02:50:49;10.80;72.30
39325;DHT22;25037;49.488;9.900;2023-03-25T02:53:28;10.80;72.40
39325;DHT22;25037;49.488;9.900;2023-03-25T02:55:59;10.90;72.40
39325;DHT22;25037;49.488;9.900;2023-03-25T02:58:28;10.80;72.40
39325;DHT22;25037;49.488;9.900;2023-03-25T03:00:56;10.90;72.30
39325;DHT22;25037;49.488;9.900;2023-03-25T03:03:25;10.90;72.20
39325;DHT22;25037;49.488;9.900;2023-03-25T03:05:56;10.90;72.20
39325;DHT22;25037;49.488;9.900;2023-03-25T03:09:00;10.90;72.00
39325;DHT22;25037;49.488;9.900;2023-03-25T03:11:42;10.90;71.80
39325;DHT22;25037;49.488;9.900;2023-03-25T03:14:27;10.90;71.60
39325;DHT22;25037;49.488;9.900;2023-03-25T03:17:07;10.90;71.30
39325;DHT22;25037;49.488;9.900;2023-03-25T03:19:54;10.80;71.20
39325;DHT22;25037;49.488;9.900;2023-03-25T03:25:32;10.80;70.80
39325;DHT22;25037;49.488;9.900;2023-03-25T03:28:06;10.70;70.80
39325;DHT22;25037;49.488;9.900;2023-03-25T03:30:48;10.70;70.70
39325;DHT22;25037;49.488;9.900;2023-03-25T03:33:18;10.60;70.60
39325;DHT22;25037;49.488;9.900;2023-03-25T03:36:00;10.60;70.60
39325;DHT22;25037;49.488;9.900;2023-03-25T03:38:31;10.50;70.30
39325;DHT22;25037;49.488;9.900;2023-03-25T03:41:06;10.50;70.20
39325;DHT22;25037;49.488;9.900;2023-03-25T03:43:51;10.50;70.20
39325;DHT22;25037;49.488;9.900;2023-03-25T03:46:36;10.50;70.10
39325;DHT22;25037;49.488;9.900;2023-03-25T03:49:08;10.50;70.10
39325;DHT22;25037;49.488;9.900;2023-03-25T03:51:39;10.50;70.10
39325;DHT22;25037;49.488;9.900;2023-03-25T03:54:21;10.40;70.00
39325;DHT22;25037;49.488;9.900;2023-03-25T03:57:00;10.40;70.00
39325;DHT22;25037;49.488;9.900;2023-03-25T04:02:34;10.40;70.20
39325;DHT22;25037;49.488;9.900;2023-03-25T04:05:10;10.30;70.20
39325;DHT22;25037;49.488;9.900;2023-03-25T04:07:40;10.30;70.30
39325;DHT22;25037;49.488;9.900;2023-03-25T04:10:16;10.30;70.20
39325;DHT22;25037;49.488;9.900;2023-03-25T04:12:47;10.20;70.20
39325;DHT22;25037;49.488;9.900;2023-03-25T04:15:16;10.30;70.30
39325;DHT22;25037;49.488;9.900;2023-03-25T04:17:43;10.30;70.30
39325;DHT22;25037;49.488;9.900;2023-03-25T04:20:13;10.30;70.30
39325;DHT22;25037;49.488;9.900;2023-03-25T04:22:40;10.30;70.20
39325;DHT22;25037;49.488;9.900;2023-03-25T04:25:12;10.30;70.30
39325;DHT22;25037;49.488;9.900;2023-03-25T04:27:40;10.30;70.30
39325;DHT22;25037;49.488;9.900;2023-03-25T04:30:07;10.30;70.30
39325;DHT22;25037;49.488;9.900;2023-03-25T04:32:34;10.30;70.30
39325;DHT22;25037;49.488;9.900;2023-03-25T04:35:01;10.30;70.30
39325;DHT22;25037;49.488;9.900;2023-03-25T04:37:28;10.30;70.20
39325;DHT22;25037;49.488;9.900;2023-03-25T04:39:54;10.30;70.20
39325;DHT22;25037;49.488;9.900;2023-03-25T04:42:25;10.30;70.20
39325;DHT22;25037;49.488;9.900;2023-03-25T04:44:58;10.40;70.10
39325;DHT22;25037;49.488;9.900;2023-03-25T04:47:26;10.40;70.00
39325;DHT22;25037;49.488;9.900;2023-03-25T04:49:52;10.40;69.90
39325;DHT22;25037;49.488;9.900;2023-03-25T04:52:19;10.40;69.70
39325;DHT22;25037;49.488;9.900;2023-03-25T04:54:46;10.40;69.60
39325;DHT22;25037;49.488;9.900;2023-03-25T04:57:13;10.50;69.40
39325;DHT22;25037;49.488;9.900;2023-03-25T04:59:40;10.40;69.20
39325;DHT22;25037;49.488;9.900;2023-03-25T05:02:07;10.40;69.20
39325;DHT22;25037;49.488;9.900;2023-03-25T05:04:39;10.40;69.10
39325;DHT22;25037;49.488;9.900;2023-03-25T05:07:13;10.40;69.00
39325;DHT22;25037;49.488;9.900;2023-03-25T05:09:42;10.50;69.00
39325;DHT22;25037;49.488;9.900;2023-03-25T05:12:08;10.50;68.80
39325;DHT22;25037;49.488;9.900;2023-03-25T05:14:37;10.50;68.80
39325;DHT22;25037;49.488;9.900;2023-03-25T05:17:04;10.50;68.70
39325;DHT22;25037;49.488;9.900;2023-03-25T05:19:30;10.50;68.60
39325;DHT22;25037;49.488;9.900;2023-03-25T05:22:00;10.50;68.60
39325;DHT22;25037;49.488;9.900;2023-03-25T05:24:30;10.50;68.60
39325;DHT22;25037;49.488;9.900;2023-03-25T05:26:56;10.50;68.50
39325;DHT22;25037;49.488;9.900;2023-03-25T05:29:23;10.60;68.40
39325;DHT22;25037;49.488;9.900;2023-03-25T05:31:49;10.50;68.40
39325;DHT22;25037;49.488;9.900;2023-03-25T05:34:16;10.60;68.50
39325;DHT22;25037;49.488;9.900;2023-03-25T05:36:43;10.60;68.30
39325;DHT22;25037;49.488;9.900;2023-03-25T05:39:10;10.60;68.30
39325;DHT22;25037;49.488;9.900;2023-03-25T05:41:37;10.60;68.20
39325;DHT22;25037;49.488;9.900;2023-03-25T05:44:08;10.60;68.20
39325;DHT22;25037;49.488;9.900;2023-03-25T05:46:35;10.60;68.20
39325;DHT22;25037;49.488;9.900;2023-03-25T05:49:02;10.60;68.10
39325;DHT22;25037;49.488;9.900;2023-03-25T05:51:32;10.60;68.20
39325;DHT22;25037;49.488;9.900;2023-03-25T05:54:05;10.60;68.20
39325;DHT22;25037;49.488;9.900;2023-03-25T05:56:37;10.60;68.20
39325;DHT22;25037;49.488;9.900;2023-03-25T05:59:04;10.60;68.00
39325;DHT22;25037;49.488;9.900;2023-03-25T06:01:30;10.60;68.00
39325;DHT22;25037;49.488;9.900;2023-03-25T06:04:00;10.70;67.80
39325;DHT22;25037;49.488;9.900;2023-03-25T06:06:30;10.80;67.50
39325;DHT22;25037;49.488;9.900;2023-03-25T06:08:57;11.00;67.20
39325;DHT22;25037;49.488;9.900;2023-03-25T06:11:24;11.10;66.80
39325;DHT22;25037;49.488;9.900;2023-03-25T06:13:51;11.20;66.70
39325;DHT22;25037;49.488;9.900;2023-03-25T06:16:23;11.10;66.60
39325;DHT22;25037;49.488;9.900;2023-03-25T06:18:53;11.10;66.50
39325;DHT22;25037;49.488;9.900;2023-03-25T06:21:28;11.10;66.50
39325;DHT22;25037;49.488;9.900;2023-03-25T06:23:56;11.10;66.40
39325;DHT22;25037;49.488;9.900;2023-03-25T06:26:24;11.20;66.20
39325;DHT22;25037;49.488;9.900;2023-03-25T06:28:51;11.20;66.00
39325;DHT22;25037;49.488;9.900;2023-03-25T06:31:22;11.30;65.90
39325;DHT22;25037;49.488;9.900;2023-03-25T06:33:52;11.40;65.80
39325;DHT22;25037;49.488;9.900;2023-03-25T06:36:19;11.40;65.70
39325;DHT22;25037;49.488;9.900;2023-03-25T06:38:48;11.40;65.40
39325;DHT22;25037;49.488;9.900;2023-03-25T06:41:16;11.60;65.10
39325;DHT22;25037;49.488;9.900;2023-03-25T06:43:46;11.90;64.70
39325;DHT22;25037;49.488;9.900;2023-03-25T06:46:14;12.10;64.00
39325;DHT22;25037;49.488;9.900;2023-03-25T06:48:41;12.40;63.70
39325;DHT22;25037;49.488;9.900;2023-03-25T06:51:08;12.80;63.10
39325;DHT22;25037;49.488;9.900;2023-03-25T06:53:35;13.30;62.50
39325;DHT22;25037;49.488;9.900;2023-03-25T06:56:01;13.40;61.70
39325;DHT22;25037;49.488;9.900;2023-03-25T06:58:28;13.50;61.30
39325;DHT22;25037;49.488;9.900;2023-03-25T07:01:01;13.50;61.00
39325;DHT22;25037;49.488;9.900;2023-03-25T07:03:33;13.40;61.20
39325;DHT22;25037;49.488;9.900;2023-03-25T07:05:59;13.40;60.90
39325;DHT22;25037;49.488;9.900;2023-03-25T07:08:26;13.50;60.70
39325;DHT22;25037;49.488;9.900;2023-03-25T07:10:58;13.50;60.60
39325;DHT22;25037;49.488;9.900;2023-03-25T07:13:25;13.50;60.50
39325;DHT22;25037;49.488;9.900;2023-03-25T07:15:54;13.40;60.70
39325;DHT22;25037;49.488;9.900;2023-03-25T07:18:21;13.50;60.60
39325;DHT22;25037;49.488;9.900;2023-03-25T07:20:48;13.60;60.40
39325;DHT22;25037;49.488;9.900;2023-03-25T07:23:15;13.70;60.10
39325;DHT22;25037;49.488;9.900;2023-03-25T07:25:41;13.70;59.90
39325;DHT22;25037;49.488;9.900;2023-03-25T07:28:08;13.80;59.50
39325;DHT22;25037;49.488;9.900;2023-03-25T07:30:35;13.80;59.50
39325;DHT22;25037;49.488;9.900;2023-03-25T07:33:01;13.80;59.40
39325;DHT22;25037;49.488;9.900;2023-03-25T07:35:28;13.70;59.40
39325;DHT22;25037;49.488;9.900;2023-03-25T07:37:55;13.80;59.40
39325;DHT22;25037;49.488;9.900;2023-03-25T07:40:21;13.80;59.20
39325;DHT22;25037;49.488;9.900;2023-03-25T07:42:48;13.80;59.00
39325;DHT22;25037;49.488;9.900;2023-03-25T07:45:15;13.80;58.90
39325;DHT22;25037;49.488;9.900;2023-03-25T07:47:41;13.90;58.80
39325;DHT22;25037;49.488;9.900;2023-03-25T07:50:08;13.80;59.00
39325;DHT22;25037;49.488;9.900;2023-03-25T07:52:35;13.80;59.00
39325;DHT22;25037;49.488;9.900;2023-03-25T07:55:02;13.80;59.30
39325;DHT22;25037;49.488;9.900;2023-03-25T07:57:28;13.80;59.00
39325;DHT22;25037;49.488;9.900;2023-03-25T07:59:55;13.90;59.00
39325;DHT22;25037;49.488;9.900;2023-03-25T08:02:22;14.20;58.80
39325;DHT22;25037;49.488;9.900;2023-03-25T08:04:48;14.30;58.50
39325;DHT22;25037;49.488;9.900;2023-03-25T08:07:15;14.60;58.00
39325;DHT22;25037;49.488;9.900;2023-03-25T08:09:42;15.00;57.80
39325;DHT22;25037;49.488;9.900;2023-03-25T08:12:08;15.30;56.90
39325;DHT22;25037;49.488;9.900;2023-03-25T08:14:35;15.50;56.30
39325;DHT22;25037;49.488;9.900;2023-03-25T08:17:04;15.70;55.60
39325;DHT22;25037;49.488;9.900;2023-03-25T08:19:31;15.80;55.20
39325;DHT22;25037;49.488;9.900;2023-03-25T08:21:58;15.80;54.80
39325;DHT22;25037;49.488;9.900;2023-03-25T08:24:25;15.90;54.20
39325;DHT22;25037;49.488;9.900;2023-03-25T08:26:52;16.20;53.40
39325;DHT22;25037;49.488;9.900;2023-03-25T08:29:21;16.20;53.40
39325;DHT22;25037;49.488;9.900;2023-03-25T08:31:50;16.10;53.50
39325;DHT22;25037;49.488;9.900;2023-03-25T08:34:19;16.10;53.30
39325;DHT22;25037;49.488;9.900;2023-03-25T08:36:46;16.10;53.20
39325;DHT22;25037;49.488;9.900;2023-03-25T08:39:13;16.10;52.80
39325;DHT22;25037;49.488;9.900;2023-03-25T08:41:45;16.20;52.60
39325;DHT22;25037;49.488;9.900;2023-03-25T08:44:12;16.40;52.00
39325;DHT22;25037;49.488;9.900;2023-03-25T08:46:38;16.30;51.90
39325;DHT22;25037;49.488;9.900;2023-03-25T08:49:05;16.20;51.70
39325;DHT22;25037;49.488;9.900;2023-03-25T08:51:32;16.10;51.80
39325;DHT22;25037;49.488;9.900;2023-03-25T08:53:59;15.90;51.90
39325;DHT22;25037;49.488;9.900;2023-03-25T08:56:26;15.90;52.10
39325;DHT22;25037;49.488;9.900;2023-03-25T08:58:53;15.90;52.20
39325;DHT22;25037;49.488;9.900;2023-03-25T09:01:20;15.80;52.30
39325;DHT22;25037;49.488;9.900;2023-03-25T09:03:47;15.90;52.20
39325;DHT22;25037;49.488;9.900;2023-03-25T09:06:14;16.10;52.00
39325;DHT22;25037;49.488;9.900;2023-03-25T09:08:40;16.30;51.40
39325;DHT22;25037;49.488;9.900;2023-03-25T09:11:07;16.30;51.30
39325;DHT22;25037;49.488;9.900;2023-03-25T09:13:34;16.20;51.20
39325;DHT22;25037;49.488;9.900;2023-03-25T09:16:00;16.10;51.10
39325;DHT22;25037;49.488;9.900;2023-03-25T09:18:27;16.00;51.20
39325;DHT22;25037;49.488;9.900;2023-03-25T09:20:58;16.10;51.10
39325;DHT22;25037;49.488;9.900;2023-03-25T09:23:26;16.10;51.30
39325;DHT22;25037;49.488;9.900;2023-03-25T09:25:52;16.10;51.20
39325;DHT22;25037;49.488;9.900;2023-03-25T09:28:19;16.10;51.10
39325;DHT22;25037;49.488;9.900;2023-03-25T09:30:46;16.10;51.00
39325;DHT22;25037;49.488;9.900;2023-03-25T09:33:12;16.20;51.10
39325;DHT22;25037;49.488;9.900;2023-03-25T09:35:40;16.10;51.40
39325;DHT22;25037;49.488;9.900;2023-03-25T09:38:07;16.00;52.00
39325;DHT22;25037;49.488;9.900;2023-03-25T09:40:33;15.80;52.70
39325;DHT22;25037;49.488;9.900;2023-03-25T09:45:47;15.70;53.10
39325;DHT22;25037;49.488;9.900;2023-03-25T09:48:36;15.70;52.90
39325;DHT22;25037;49.488;9.900;2023-03-25T09:53:49;15.80;52.80
39325;DHT22;25037;49.488;9.900;2023-03-25T09:56:20;15.80;52.50
39325;DHT22;25037;49.488;9.900;2023-03-25T09:58:52;15.70;52.50
39325;DHT22;25037;49.488;9.900;2023-03-25T10:01:34;15.50;52.70
39325;DHT22;25037;49.488;9.900;2023-03-25T10:06:31;15.00;54.00
39325;DHT22;25037;49.488;9.900;2023-03-25T10:09:29;14.60;55.30
39325;DHT22;25037;49.488;9.900;2023-03-25T10:12:10;14.30;56.50
39325;DHT22;25037;49.488;9.900;2023-03-25T10:17:34;13.40;58.30
39325;DHT22;25037;49.488;9.900;2023-03-25T10:20:11;13.10;59.00
39325;DHT22;25037;49.488;9.900;2023-03-25T10:23:05;13.00;58.80
39325;DHT22;25037;49.488;9.900;2023-03-25T10:25:36;13.30;59.90
39325;DHT22;25037;49.488;9.900;2023-03-25T10:28:05;13.40;60.10
39325;DHT22;25037;49.488;9.900;2023-03-25T10:30:41;13.60;60.60
39325;DHT22;25037;49.488;9.900;2023-03-25T10:35:57;14.20;61.20
39325;DHT22;25037;49.488;9.900;2023-03-25T10:38:25;14.50;60.50
39325;DHT22;25037;49.488;9.900;2023-03-25T10:43:40;15.00;60.70
39325;DHT22;25037;49.488;9.900;2023-03-25T10:46:30;15.20;60.40
39325;DHT22;25037;49.488;9.900;2023-03-25T10:48:58;15.40;59.80
39325;DHT22;25037;49.488;9.900;2023-03-25T10:51:32;15.70;59.50
39325;DHT22;25037;49.488;9.900;2023-03-25T10:54:00;15.70;58.90
39325;DHT22;25037;49.488;9.900;2023-03-25T10:56:37;15.70;59.10
39325;DHT22;25037;49.488;9.900;2023-03-25T10:59:15;15.80;58.50
39325;DHT22;25037;49.488;9.900;2023-03-25T11:01:44;15.80;58.60
39325;DHT22;25037;49.488;9.900;2023-03-25T11:04:16;15.80;58.30
39325;DHT22;25037;49.488;9.900;2023-03-25T11:06:45;16.00;57.80
39325;DHT22;25037;49.488;9.900;2023-03-25T11:11:41;16.50;57.50
39325;DHT22;25037;49.488;9.900;2023-03-25T11:14:10;16.60;56.40
39325;DHT22;25037;49.488;9.900;2023-03-25T11:16:51;16.70;56.70
39325;DHT22;25037;49.488;9.900;2023-03-25T11:19:26;17.00;56.00
39325;DHT22;25037;49.488;9.900;2023-03-25T11:21:57;17.30;54.80
39325;DHT22;25037;49.488;9.900;2023-03-25T11:24:31;17.50;54.00
39325;DHT22;25037;49.488;9.900;2023-03-25T11:26:58;17.60;52.40
39325;DHT22;25037;49.488;9.900;2023-03-25T11:29:27;17.50;52.10
39325;DHT22;25037;49.488;9.900;2023-03-25T11:32:14;17.50;52.10
39325;DHT22;25037;49.488;9.900;2023-03-25T11:34:46;17.50;51.90
39325;DHT22;25037;49.488;9.900;2023-03-25T11:37:21;17.50;51.80
39325;DHT22;25037;49.488;9.900;2023-03-25T11:39:54;17.60;51.30
39325;DHT22;25037;49.488;9.900;2023-03-25T11:44:53;17.70;51.00
39325;DHT22;25037;49.488;9.900;2023-03-25T11:47:25;17.90;50.30
39325;DHT22;25037;49.488;9.900;2023-03-25T11:49:53;18.00;49.60
39325;DHT22;25037;49.488;9.900;2023-03-25T11:52:22;17.70;49.20
39325;DHT22;25037;49.488;9.900;2023-03-25T11:54:52;17.60;49.20
39325;DHT22;25037;49.488;9.900;2023-03-25T11:57:24;17.50;49.30
39325;DHT22;25037;49.488;9.900;2023-03-25T12:00:01;17.50;49.60
39325;DHT22;25037;49.488;9.900;2023-03-25T12:02:37;17.50;49.50
39325;DHT22;25037;49.488;9.900;2023-03-25T12:07:43;17.80;48.80
39325;DHT22;25037;49.488;9.900;2023-03-25T12:16:26;17.50;48.70
39325;DHT22;25037;49.488;9.900;2023-03-25T12:19:14;17.10;49.10
39325;DHT22;25037;49.488;9.900;2023-03-25T12:22:15;16.60;49.90
39325;DHT22;25037;49.488;9.900;2023-03-25T12:27:51;15.50;51.00
39325;DHT22;25037;49.488;9.900;2023-03-25T12:36:23;14.70;53.70
39325;DHT22;25037;49.488;9.900;2023-03-25T12:39:34;14.50;54.30
39325;DHT22;25037;49.488;9.900;2023-03-25T12:48:24;14.20;56.00
39325;DHT22;25037;49.488;9.900;2023-03-25T12:54:25;14.50;56.40
39325;DHT22;25037;49.488;9.900;2023-03-25T13:11:08;14.80;58.40
39325;DHT22;25037;49.488;9.900;2023-03-25T13:13:38;14.50;58.50
39325;DHT22;25037;49.488;9.900;2023-03-25T13:18:59;14.50;59.40
39325;DHT22;25037;49.488;9.900;2023-03-25T13:21:29;14.70;60.00
39325;DHT22;25037;49.488;9.900;2023-03-25T13:24:02;14.70;60.00
39325;DHT22;25037;49.488;9.900;2023-03-25T13:26:31;14.70;60.00
39325;DHT22;25037;49.488;9.900;2023-03-25T13:29:03;14.80;59.60
39325;DHT22;25037;49.488;9.900;2023-03-25T13:31:36;15.00;59.20
39325;DHT22;25037;49.488;9.900;2023-03-25T13:34:19;15.00;58.30
39325;DHT22;25037;49.488;9.900;2023-03-25T13:39:53;15.20;57.10
39325;DHT22;25037;49.488;9.900;2023-03-25T13:42:40;15.20;56.80
39325;DHT22;25037;49.488;9.900;2023-03-25T13:45:17;15.20;56.80
39325;DHT22;25037;49.488;9.900;2023-03-25T13:48:03;15.30;56.10
39325;DHT22;25037;49.488;9.900;2023-03-25T13:50:31;15.30;55.50
39325;DHT22;25037;49.488;9.900;2023-03-25T13:56:24;15.40;55.60
39325;DHT22;25037;49.488;9.900;2023-03-25T13:59:21;15.50;55.40
39325;DHT22;25037;49.488;9.900;2023-03-25T14:02:22;15.40;55.40
39325;DHT22;25037;49.488;9.900;2023-03-25T14:05:20;15.50;55.50
39325;DHT22;25037;49.488;9.900;2023-03-25T14:10:34;15.60;55.30
39325;DHT22;25037;49.488;9.900;2023-03-25T14:13:05;15.60;55.20
39325;DHT22;25037;49.488;9.900;2023-03-25T14:15:40;15.70;55.00
39325;DHT22;25037;49.488;9.900;2023-03-25T14:18:17;15.70;54.70
39325;DHT22;25037;49.488;9.900;2023-03-25T14:20:45;15.70;54.80
39325;DHT22;25037;49.488;9.900;2023-03-25T14:23:15;15.70;54.90
39325;DHT22;25037;49.488;9.900;2023-03-25T14:25:46;15.70;54.60
39325;DHT22;25037;49.488;9.900;2023-03-25T14:28:35;15.70;54.80
39325;DHT22;25037;49.488;9.900;2023-03-25T14:31:09;15.70;54.20
39325;DHT22;25037;49.488;9.900;2023-03-25T14:44:43;16.10;53.90
39325;DHT22;25037;49.488;9.900;2023-03-25T14:52:44;16.20;53.10
39325;DHT22;25037;49.488;9.900;2023-03-25T14:55:18;16.20;53.10
39325;DHT22;25037;49.488;9.900;2023-03-25T14:57:46;16.20;53.40
39325;DHT22;25037;49.488;9.900;2023-03-25T15:00:26;16.10;52.80
39325;DHT22;25037;49.488;9.900;2023-03-25T15:03:12;16.00;52.70
39325;DHT22;25037;49.488;9.900;2023-03-25T15:05:40;16.00;52.60
39325;DHT22;25037;49.488;9.900;2023-03-25T15:10:43;15.80;52.40
39325;DHT22;25037;49.488;9.900;2023-03-25T15:13:19;16.00;52.10
39325;DHT22;25037;49.488;9.900;2023-03-25T15:23:48;16.30;50.60
39325;DHT22;25037;49.488;9.900;2023-03-25T15:26:31;16.30;50.40
39325;DHT22;25037;49.488;9.900;2023-03-25T15:31:30;16.30;49.90
39325;DHT22;25037;49.488;9.900;2023-03-25T15:34:13;16.30;49.90
39325;DHT22;25037;49.488;9.900;2023-03-25T15:39:38;16.20;49.60
39325;DHT22;25037;49.488;9.900;2023-03-25T15:45:09;16.30;48.90
39325;DHT22;25037;49.488;9.900;2023-03-25T15:56:28;16.50;48.40
39325;DHT22;25037;49.488;9.900;2023-03-25T15:59:05;16.60;48.10
39325;DHT22;25037;49.488;9.900;2023-03-25T16:01:35;16.50;47.90
39325;DHT22;25037;49.488;9.900;2023-03-25T16:04:16;16.40;47.70
39325;DHT22;25037;49.488;9.900;2023-03-25T16:06:47;16.20;47.90
39325;DHT22;25037;49.488;9.900;2023-03-25T16:09:18;16.10;48.00
39325;DHT22;25037;49.488;9.900;2023-03-25T16:11:46;16.00;48.20
39325;DHT22;25037;49.488;9.900;2023-03-25T16:14:15;15.80;48.50
39325;DHT22;25037;49.488;9.900;2023-03-25T16:16:56;15.70;48.60
39325;DHT22;25037;49.488;9.900;2023-03-25T16:20:11;15.70;48.30
39325;DHT22;25037;49.488;9.900;2023-03-25T16:22:29;15.50;48.50
39325;DHT22;25037;49.488;9.900;2023-03-25T16:25:04;15.40;48.30
39325;DHT22;25037;49.488;9.900;2023-03-25T16:27:40;15.40;48.40
39325;DHT22;25037;49.488;9.900;2023-03-25T16:30:38;15.30;48.70
39325;DHT22;25037;49.488;9.900;2023-03-25T16:35:40;15.30;48.50
39325;DHT22;25037;49.488;9.900;2023-03-25T16:38:09;15.20;48.60
39325;DHT22;25037;49.488;9.900;2023-03-25T16:40:40;15.20;48.50
39325;DHT22;25037;49.488;9.900;2023-03-25T16:45:39;15.10;47.90
39325;DHT22;25037;49.488;9.900;2023-03-25T16:48:09;14.90;48.00
39325;DHT22;25037;49.488;9.900;2023-03-25T16:50:39;14.80;47.90
39325;DHT22;25037;49.488;9.900;2023-03-25T16:53:06;14.70;48.50
39325;DHT22;25037;49.488;9.900;2023-03-25T16:58:21;14.50;48.20
39325;DHT22;25037;49.488;9.900;2023-03-25T17:00:51;14.40;48.30
39325;DHT22;25037;49.488;9.900;2023-03-25T17:06:21;14.30;49.30
39325;DHT22;25037;49.488;9.900;2023-03-25T17:08:56;14.30;49.20
39325;DHT22;25037;49.488;9.900;2023-03-25T17:11:27;14.20;49.10
39325;DHT22;25037;49.488;9.900;2023-03-25T17:13:59;14.20;48.80
39325;DHT22;25037;49.488;9.900;2023-03-25T17:16:28;14.20;48.90
39325;DHT22;25037;49.488;9.900;2023-03-25T17:18:56;14.10;49.20
39325;DHT22;25037;49.488;9.900;2023-03-25T17:21:29;14.00;49.30
39325;DHT22;25037;49.488;9.900;2023-03-25T17:23:59;13.90;49.30
39325;DHT22;25037;49.488;9.900;2023-03-25T17:26:32;13.80;49.60
39325;DHT22;25037;49.488;9.900;2023-03-25T17:29:00;13.80;49.80
39325;DHT22;25037;49.488;9.900;2023-03-25T17:31:39;13.70;49.80
39325;DHT22;25037;49.488;9.900;2023-03-25T17:34:10;13.60;49.70
39325;DHT22;25037;49.488;9.900;2023-03-25T17:36:40;13.50;49.60
39325;DHT22;25037;49.488;9.900;2023-03-25T17:39:28;13.40;49.40
39325;DHT22;25037;49.488;9.900;2023-03-25T17:42:01;13.30;49.20
39325;DHT22;25037;49.488;9.900;2023-03-25T17:44:33;13.30;49.10
39325;DHT22;25037;49.488;9.900;2023-03-25T17:47:00;13.20;49.20
39325;DHT22;25037;49.488;9.900;2023-03-25T17:49:27;13.20;49.20
39325;DHT22;25037;49.488;9.900;2023-03-25T17:51:54;13.10;49.10
39325;DHT22;25037;49.488;9.900;2023-03-25T17:54:20;13.10;49.10
39325;DHT22;25037;49.488;9.900;2023-03-25T17:56:47;13.00;48.90
39325;DHT22;25037;49.488;9.900;2023-03-25T17:59:19;13.00;48.80
39325;DHT22;25037;49.488;9.900;2023-03-25T18:01:47;12.90;48.60
39325;DHT22;25037;49.488;9.900;2023-03-25T18:04:16;12.90;48.80
39325;DHT22;25037;49.488;9.900;2023-03-25T18:06:43;12.90;48.90
39325;DHT22;25037;49.488;9.900;2023-03-25T18:09:21;12.90;49.70
39325;DHT22;25037;49.488;9.900;2023-03-25T18:11:51;13.00;49.80
39325;DHT22;25037;49.488;9.900;2023-03-25T18:14:19;13.00;49.50
39325;DHT22;25037;49.488;9.900;2023-03-25T18:16:46;13.10;49.20
39325;DHT22;25037;49.488;9.900;2023-03-25T18:19:16;13.10;49.00
39325;DHT22;25037;49.488;9.900;2023-03-25T18:21:44;13.10;49.00
39325;DHT22;25037;49.488;9.900;2023-03-25T18:24:11;13.10;49.10
39325;DHT22;25037;49.488;9.900;2023-03-25T18:26:40;13.10;49.20
39325;DHT22;25037;49.488;9.900;2023-03-25T18:29:21;13.10;49.30